»·PEaware :: N198TS KSNA-KBUR

N198TS :: KSNA-KBUR

FLIGHT INFORMATION

Flight Status: Arrived
Operator: Privately registered:
United States
More flights under this callsign
Pilot: Adam S. (8156)
Aircraft: Unknown
(DA62)
More flights by this aircraft type
Origin: KSNA John Wayne-Orange Co
United States
Destination: KBUR Bob Hope-Burbank
United States
More flights between these airports :: More routes between these airports
Route: SLI V23 POPPR SMO125 SMO SMO311 SILEX
File this flight plan on PilotEdge
Remarks: Request ILS 8
Altitude:
(Current/Filed)
4,000ft
Speed:
(Current/Filed)
165kts
Departed: 17-Jul-18 11:10 AM
Arrived: 17-Jul-18 11:49 AM
Distance/Time
Traveled:
40nm/0:39
Distance/Time
To Go:
Arrived

Flight Plot

Page will automatically refresh every two minutes.


Map Options




Map Legend


Flown Route
Filed Route
Departure Airport
Arrival Airport
Navaid (VOR, NDB)
Fix

Horizontal Profiles

Position Reports

Time Latitude Longitude Heading Altitude Ground
Speed
17-Jul-18 10:55 33.671519 -117.867198 26 60ft 0kts
17-Jul-18 10:56 33.671519 -117.867198 26 60ft 0kts
17-Jul-18 10:57 33.671519 -117.867198 26 60ft 0kts
17-Jul-18 10:58 33.671519 -117.867198 26 60ft 0kts
17-Jul-18 10:59 33.671519 -117.867198 26 60ft 0kts
17-Jul-18 11:00 33.671519 -117.867198 26 60ft 0kts
17-Jul-18 11:01 33.671519 -117.867198 26 60ft 0kts
17-Jul-18 11:02 33.671519 -117.867198 26 60ft 0kts
17-Jul-18 11:05 33.674976 -117.866525 29 60ft 18kts
17-Jul-18 11:06 33.679481 -117.863675 27 60ft 7kts
17-Jul-18 11:07 33.679944 -117.863602 283 60ft 0kts
17-Jul-18 11:08 33.679944 -117.863602 283 60ft 0kts
17-Jul-18 11:09 33.680067 -117.863900 296 60ft 9kts
17-Jul-18 11:10 33.679962 -117.864256 202 60ft 0kts
17-Jul-18 11:11 33.675024 -117.867373 205 87ft 91kts
17-Jul-18 11:12 33.656199 -117.885563 220 1657ft 87kts
17-Jul-18 11:13 33.632624 -117.912517 221 1996ft 152kts
17-Jul-18 11:14 33.626039 -117.958110 292 2245ft 158kts
17-Jul-18 11:15 33.642917 -118.002694 291 2894ft 142kts
17-Jul-18 11:16 33.659006 -118.044903 291 3570ft 140kts
17-Jul-18 11:17 33.676463 -118.091090 292 3622ft 162kts
17-Jul-18 11:18 33.694990 -118.140538 291 3631ft 165kts
17-Jul-18 11:19 33.713708 -118.190478 291 3629ft 165kts
17-Jul-18 11:20 33.721022 -118.242364 275 3829ft 141kts
17-Jul-18 11:21 33.759186 -118.266883 342 3595ft 169kts
17-Jul-18 11:22 33.802090 -118.285843 338 3993ft 147kts
17-Jul-18 11:23 33.845316 -118.307801 335 3575ft 171kts
17-Jul-18 11:24 33.886541 -118.332742 330 3813ft 158kts
17-Jul-18 11:25 33.924259 -118.359431 326 3983ft 166kts
17-Jul-18 11:26 33.954218 -118.387872 307 3962ft 116kts
17-Jul-18 11:27 33.973970 -118.419360 299 3976ft 121kts
17-Jul-18 11:28 33.998254 -118.447282 323 3977ft 124kts
17-Jul-18 11:29 34.026510 -118.471014 323 3969ft 125kts
17-Jul-18 11:30 34.053952 -118.494649 312 3961ft 119kts
17-Jul-18 11:31 34.076535 -118.522848 310 3980ft 118kts
17-Jul-18 11:32 34.099184 -118.551152 312 3971ft 119kts
17-Jul-18 11:33 34.121636 -118.579319 312 3976ft 116kts
17-Jul-18 11:34 34.143844 -118.607062 310 3981ft 114kts
17-Jul-18 11:35 34.165888 -118.634540 313 3976ft 116kts
17-Jul-18 11:36 34.186949 -118.660874 314 3987ft 116kts
17-Jul-18 11:37 34.206954 -118.645864 88 3980ft 109kts
17-Jul-18 11:38 34.206053 -118.609440 108 3978ft 109kts
17-Jul-18 11:39 34.195298 -118.570999 110 3516ft 132kts
17-Jul-18 11:40 34.183398 -118.529205 110 3102ft 132kts
17-Jul-18 11:41 34.160975 -118.523984 257 3017ft 113kts
17-Jul-18 11:42 34.167275 -118.557112 278 3382ft 114kts
17-Jul-18 11:43 34.171077 -118.600357 272 3392ft 141kts
17-Jul-18 11:44 34.187965 -118.637919 4 3374ft 153kts
17-Jul-18 11:45 34.201104 -118.595550 95 3010ft 153kts
17-Jul-18 11:46 34.200137 -118.547915 92 2985ft 135kts
17-Jul-18 11:47 34.199553 -118.503551 93 2887ft 138kts
17-Jul-18 11:48 34.198982 -118.453317 93 2147ft 158kts
17-Jul-18 11:49 34.198338 -118.399959 91 1285ft 163kts
17-Jul-18 11:50 34.197881 -118.360741 88 734ft 35kts
17-Jul-18 11:51 34.198645 -118.360237 7 734ft 0kts
17-Jul-18 11:52 34.199598 -118.359996 50 734ft 13kts
17-Jul-18 11:53 34.199703 -118.359794 59 734ft 0kts
17-Jul-18 11:54 34.199703 -118.359794 59 734ft 0kts
17-Jul-18 11:55 34.199703 -118.359794 59 734ft 0kts
17-Jul-18 11:56 34.199703 -118.359794 59 734ft 0kts
17-Jul-18 11:57 34.199703 -118.359794 59 734ft 0kts

Navigation Log

Ident Type
1. KSNA Airport
2. SLI Navaid
3. POPPR Fix
4. SMO Navaid
5. SILEX Fix
6. KBUR Airport